หน้าหลัก
METAR-TAF:

METAR-TAF

ท่าอากาศยาน :

Tinian, หมู่เกาะแมเรียนา, สหรัฐอเมริกา

ละติจูด: 14-59N, ลองจิจูด: 145-37E, ความสูง: 82 ม.

การสังเกตสภาพอากาศปัจจุบัน

รายงานได้ทำขึ้นเมื่อ 1 ชั่วโมงและ 1 นาทีที่แล้ว ณ เวลา 02:50 UTC
ลม 10 นอตจากตะวันออก
อุณหภูมิ 30°C
ความชื้น 79%
ความกดอากาศ 1012 hPa
ทัศนวิสัย: 11.3 กม.
มีเมฆกระจายเป็นบางส่วนที่ความสูง 2000 ฟุต
มีเมฆเป็นส่วนมากเว้นเป็นระยะที่ความสูง 12000 ฟุต

METAR: PGWT 130250Z 10010KT 7SM SCT020 BKN120 30/26 A2989

เวลา: 13:51 (03:51 UTC)

การพยากรณ์

รายงานได้ทำขึ้นเมื่อ 4 ชั่วโมงและ 19 นาทีที่แล้ว ณ เวลา 23:32 UTC
การพยากรณ์มีผลตั้งแต่วันที่ 13 ณ เวลา 00 UTC จนถึงวันที่ 13 ณ เวลา 24 UTC
ลม 14 นอตจากตะวันออก
ทัศนวิสัย: 10 กม.
มีเมฆกระจายเป็นบางส่วนที่ความสูง 2000 ฟุต
มีเมฆกระจายเป็นบางส่วนที่ความสูง 4000 ฟุต
การโปรยปรายในบริเวณใกล้เคียง,

TAF: PGWT 122332Z 1300/1324 09014KT P6SM VCSH SCT020 SCT040

สังเกตการณ์สภาพอากาศและพยากรณ์อากาศของสนามบินมากกว่า 4000 แห่ง (รายงาน METAR และ TAF).

สถานีที่ดูได้จะแสดงไว้ด้วยจุดสีเหลืองและสีแดงบนแผนที่.

เลื่อนเมาส์ไปเหนือจุดเพื่อดูชื่อสถานี.

แล้วคลิกเพื่อดูสังเกตการณ์และการพยากรณ์สภาพอากาศ.

ในการเปลี่ยนแผนที่: คลิกที่ปุ่มสีเขียวที่มีกากบาทสีดำเพื่อซูมเข้า; ที่ปุ่มสีเขียวที่มีขีดเพื่อซูมออก; หรือที่ลูกศรสีเขียวเพื่อไปยังแผนที่ที่อยู่ติดกัน.


METAR-TAF: